Fort Lauderdale, FL (33335)

4:04 AM EDT on August 31, 2015 (GMT -0400)
Coral Ridge Isles | | Change Station
CLOSE
Current Station
Personal Weather Station
Location: Fort Lauderdale, FL
Elevation: 23 ft
Nearby Weather Stations
Active Advisory: Coastal Hazard Statement

Elev 23 ft 26.19 °N, 80.13 °W | Updated 20 seconds ago

Clear
Clear
82.8 °F
Feels Like 91 °F
N
2.0
Wind Variable Wind from East
Gusts 4.9 mph

Today
High -- | Low -- °F
--% Chance of Precip.
Yesterday
High -- | Low -- °F
Precip. -- in
7:00 AM 7:41 PM
Waning Gibbous, 96% visible
Pressure 30.02 in
Visibility 10.0 miles
Clouds Clear
Heat Index 91 °F
Dew Point 76 °F
Humidity 80%
Rainfall 0.00 in
Snow Depth Not available.
UV 0.0 out of 12
Pollen .60 out of 12
Air Quality Not available.
Flu Activity Not available.
METAR KFXE 310653Z 10004KT 10SM CLR 25/24 A3001 RMK AO2 SLP164 T02500239
Pressure 30.02 in
Visibility 10.0 miles
Clouds Clear
Heat Index 91 °F
Dew Point 76 °F
Humidity 80%
Rainfall 0.00 in
Snow Depth Not available.
UV 0.0 out of 12
Pollen .60 out of 12
Air Quality Not available.
Flu Activity Not available.
METAR KFXE 310653Z 10004KT 10SM CLR 25/24 A3001 RMK AO2 SLP164 T02500239

10-Day Weather Forecast

×

Almanac

Astronomy

Aug. 31, 2015 Rise Set
Actual Time
Civil Twilight
Nautical Twilight
Astronomical Twilight
Moon
Length of Visible Light
Length of Day
Tomorrow will be .
, % of the Moon is Illuminated

Today's Extremes

State Highs State Lows

Community

WunderPhotos

Upload Photos

1,851,220 photos uploaded!

WunderBlogs® & News

Nearby

Air Quality

  Air Quality AQ Index Pollutant
Not available.

Snow Depth

Station Depth Elevation

Earthquake Activity

City Distance Mag. Time & Date
Minimum magnitude displayed is 2.5.

Coastal Water Temperatures

Place Temperature

Stations

Nearby Weather Stations

Station Location Temp. Windchill Dew Point Humidity Wind Precip. Elev Updated Type
                   
Coastal Hazard Statement
Statement as of 3:55 PM EDT on August 30, 2015

... High rip current risk now in effect through Monday morning...

* timing... through Monday morning.

* Impacts... persistent gusty easterly winds will affect the East
Coast Metro areas of South Florida through Monday morning.
Dangerous swimming conditions will continue through Monday
morning.

Precautionary/preparedness actions...

There is a high risk of rip currents.

Rip currents are powerful channels of water flowing quickly away
from shore... which occur most often at low spots or breaks in The
Sandbar and in the vicinity of structures such as groins...
jetties and piers. Heed the advice of lifeguards... beach patrol
flags and signs.

If you become caught in a rip current... Yell for help. Remain
calm... do not exhaust yourself and stay afloat while waiting for
help. If you have to swim out of a rip current... swim parallel to
shore and back toward the beach when possible. Do not attempt to
swim directly against a rip current as you will tire quickly.




Http://www.Weather.Gov/Miami